Impacts METAR Board
IDs:

KLAX - Los Angeles Intl, CA, US

Updated at: 0800 UTC 16 Oct 2018
Potential Impact None Slight Moderate High
Time 15/20Z 15/21Z 15/22Z 15/23Z 16/00Z 16/01Z 16/02Z 16/03Z 16/04Z 16/05Z 16/06Z 16/07Z 16/08Z
Temp82 82 83 83 83 81 77 73 72 71 68 68 62
Dewpt4 3 1 -2 -6 -6 -0 18 32 37 39 27 44
Altim30.04 30.01 30.00 30.00 29.99 29.99 29.99 30.00 30.01 30.02 30.02 30.02 30.02
VIS10 10 10 10 10 10 10 10 10 10 10 10 10
CIG-- -- -- -- -- -- -- -- -- -- -- -- --
CoverCLRCLRCLRCLRCLRCLRCLRCLRCLRCLRCLRCLRCLR
FltCatVFRVFRVFRVFRVFRVFRVFRVFRVFRVFRVFRVFRVFR
WX--------------------------
WDir10103603020300150150210260090
WSpd10 13 11 11 12 9 0 6 5 5 9 0 3
WGst17 18 -- -- 19 23 -- -- -- -- -- -- --
Raw hourly METARs
KLAX 151953Z 01010G17KT 10SM CLR 28/M16 A3004 RMK AO2 SLP170 T02781156
KLAX 152053Z 01013G18KT 10SM CLR 28/M16 A3001 RMK AO2 SLP163 T02781161 58016
KLAX 152153Z 36011KT 10SM CLR 28/M17 A3000 RMK AO2 SLP159 T02831172
KLAX 152253Z 03011KT 10SM CLR 28/M19 A3000 RMK AO2 SLP157 T02831189
KLAX 152353Z 02012G19KT 10SM CLR 28/M21 A2999 RMK AO2 SLP154 T02831211 10289 20250 56009
KLAX 160053Z 03009G23KT 10SM CLR 27/M21 A2999 RMK AO2 SLP153 T02721211 $
KLAX 160153Z 00000KT 10SM CLR 25/M18 A2999 RMK AO2 SLP154 T02501178 $
KLAX 160253Z 15006KT 10SM CLR 23/M08 A3000 RMK AO2 SLP159 T02281078 53004 $
KLAX 160353Z 15005KT 10SM CLR 22/00 A3001 RMK AO2 SLP160 T02220000 $
KLAX 160453Z 21005KT 10SM CLR 22/03 A3002 RMK AO2 SLP162 T02170028 $
KLAX 160553Z 26009KT 10SM CLR 20/04 A3002 RMK AO2 SLP163 T02000039 10283 20200 51005 $
KLAX 160653Z 00000KT 10SM CLR 20/M03 A3002 RMK AO2 SLP161 T02001028 $
KLAX 160753Z 09003KT 10SM CLR 17/07 A3002 RMK AO2 SLP162 T01670067 402890156 $



Page loaded:  08:41 UTC  |   01:41 AM Pacific  |   02:41 AM Mountain  |   03:41 AM Central  |   04:41 AM Eastern

 

ADVISORIES

FORECASTS

FORECASTS

OBSERVATIONS

USER TOOLS

ABOUT US